createdAt,value
2018-08-12T00:01:24.251Z,65.70
2018-08-12T00:03:54.009Z,66.10
2018-08-12T00:06:25.755Z,65.30
2018-08-12T00:08:54.347Z,64.90
2018-08-12T00:11:22.888Z,65.30
2018-08-12T00:13:51.315Z,65.90
2018-08-12T00:16:19.809Z,66.40
2018-08-12T00:18:48.257Z,66.60
2018-08-12T00:21:17.703Z,66.80
2018-08-12T00:23:51.886Z,67.00
2018-08-12T00:26:20.529Z,67.60
2018-08-12T00:28:50.016Z,68.40
2018-08-12T00:31:18.657Z,68.50
2018-08-12T00:33:47.754Z,68.50
2018-08-12T00:36:16.181Z,69.10
2018-08-12T00:38:44.714Z,68.70
2018-08-12T00:41:13.162Z,69.00
2018-08-12T00:43:41.607Z,69.10
2018-08-12T00:46:10.087Z,69.40
2018-08-12T00:48:38.594Z,69.60
2018-08-12T00:51:07.423Z,69.80
2018-08-12T00:53:35.910Z,70.00
2018-08-12T00:56:04.451Z,70.00
2018-08-12T00:58:32.937Z,70.50
2018-08-12T01:01:01.345Z,70.60
2018-08-12T01:03:29.826Z,70.70
2018-08-12T01:05:58.298Z,71.10
2018-08-12T01:08:26.783Z,71.80
2018-08-12T01:10:55.213Z,71.30
2018-08-12T01:13:23.764Z,71.50
2018-08-12T01:15:52.238Z,71.50
2018-08-12T01:18:20.745Z,71.20
2018-08-12T01:20:49.279Z,71.30
2018-08-12T01:23:17.730Z,71.90
2018-08-12T01:25:46.228Z,71.60
2018-08-12T01:28:14.663Z,72.00
2018-08-12T01:30:43.113Z,72.20
2018-08-12T01:33:11.565Z,72.50
2018-08-12T01:35:40.076Z,72.30
2018-08-12T01:38:08.550Z,72.30
2018-08-12T01:40:37.097Z,72.40
2018-08-12T01:43:06.207Z,72.50
2018-08-12T01:45:34.683Z,73.10
2018-08-12T01:48:03.149Z,73.50
2018-08-12T01:50:31.653Z,73.80
2018-08-12T01:53:00.120Z,74.10
2018-08-12T01:55:28.672Z,74.70
2018-08-12T01:57:57.174Z,75.60
2018-08-12T02:00:26.592Z,75.10
2018-08-12T02:02:55.021Z,75.70
2018-08-12T02:05:23.484Z,75.70
2018-08-12T02:07:51.878Z,76.10
2018-08-12T02:10:20.383Z,75.90
2018-08-12T02:12:48.944Z,76.00
2018-08-12T02:15:17.474Z,75.90
2018-08-12T02:17:46.010Z,75.90
2018-08-12T02:20:14.441Z,76.20
2018-08-12T02:22:43.058Z,75.80
2018-08-12T02:25:12.140Z,76.00
2018-08-12T02:27:40.578Z,75.70
2018-08-12T02:30:11.095Z,75.90
2018-08-12T02:32:39.842Z,76.10
2018-08-12T02:35:08.875Z,75.70
2018-08-12T02:37:37.431Z,75.90
2018-08-12T02:40:07.090Z,76.20
2018-08-12T02:42:35.611Z,76.40
2018-08-12T02:45:04.917Z,76.60
2018-08-12T02:47:33.313Z,76.50
2018-08-12T02:50:01.787Z,76.60
2018-08-12T02:52:30.169Z,76.40
2018-08-12T02:54:58.665Z,76.30
2018-08-12T02:57:27.116Z,76.00
2018-08-12T02:59:55.665Z,76.50
2018-08-12T03:02:24.124Z,76.20
2018-08-12T03:04:52.528Z,77.00
2018-08-12T03:07:20.982Z,77.00
2018-08-12T03:09:49.408Z,77.60
2018-08-12T03:12:17.857Z,77.70
2018-08-12T03:14:46.278Z,77.70
2018-08-12T03:17:14.685Z,77.10
2018-08-12T03:19:43.117Z,77.40
2018-08-12T03:22:11.600Z,77.10
2018-08-12T03:24:40.401Z,77.40
2018-08-12T03:27:08.893Z,77.70
2018-08-12T03:29:37.372Z,78.70
2018-08-12T03:32:05.920Z,78.70
2018-08-12T03:34:34.319Z,78.60
2018-08-12T03:37:03.040Z,78.70
2018-08-12T03:39:31.546Z,79.00
2018-08-12T03:41:59.985Z,79.50
2018-08-12T03:44:28.526Z,79.90
2018-08-12T03:46:56.989Z,80.10
2018-08-12T03:49:25.436Z,80.40
2018-08-12T03:51:53.968Z,80.30
2018-08-12T03:54:22.684Z,80.50
2018-08-12T03:56:51.221Z,80.00
2018-08-12T03:59:19.671Z,80.50
2018-08-12T04:01:48.137Z,80.70
2018-08-12T04:04:16.569Z,80.40
2018-08-12T04:06:45.036Z,80.90
2018-08-12T04:09:13.480Z,81.70
2018-08-12T04:11:42.010Z,81.70
2018-08-12T04:14:10.391Z,81.60
2018-08-12T04:16:38.905Z,81.60
2018-08-12T04:19:07.343Z,81.60
2018-08-12T04:21:35.798Z,81.70
2018-08-12T04:24:04.278Z,82.40
2018-08-12T04:26:32.727Z,82.20
2018-08-12T04:29:01.167Z,82.10
2018-08-12T04:31:29.589Z,82.00
2018-08-12T04:33:58.020Z,82.30
2018-08-12T04:36:26.467Z,82.20
2018-08-12T04:38:54.971Z,82.10
2018-08-12T04:41:23.424Z,82.60
2018-08-12T04:43:51.913Z,82.10
2018-08-12T04:46:20.427Z,82.00
2018-08-12T04:48:48.879Z,81.90
2018-08-12T04:51:17.800Z,82.30
2018-08-12T04:53:46.170Z,82.00
2018-08-12T04:56:14.586Z,81.90
2018-08-12T04:58:43.051Z,82.40
2018-08-12T05:01:11.496Z,82.50
2018-08-12T05:03:40.032Z,82.10
2018-08-12T05:06:08.543Z,81.80
2018-08-12T05:08:37.049Z,81.30
2018-08-12T05:11:05.651Z,80.60
2018-08-12T05:13:34.078Z,79.90
2018-08-12T05:16:02.508Z,79.70
2018-08-12T05:18:30.898Z,79.40
2018-08-12T05:20:59.329Z,79.20
2018-08-12T05:23:27.707Z,79.30
2018-08-12T05:25:56.784Z,80.00
2018-08-12T05:28:25.268Z,80.10
2018-08-12T05:30:53.756Z,79.40
2018-08-12T05:33:22.212Z,79.30
2018-08-12T05:35:50.637Z,79.60
2018-08-12T05:38:19.076Z,80.30
2018-08-12T05:40:47.525Z,80.10
2018-08-12T05:43:15.939Z,79.70
2018-08-12T05:45:44.375Z,79.60
2018-08-12T05:48:12.813Z,78.90
2018-08-12T05:50:41.236Z,78.70
2018-08-12T05:53:09.673Z,79.30
2018-08-12T05:55:38.091Z,79.20
2018-08-12T05:58:06.674Z,79.20
2018-08-12T06:00:35.784Z,79.60
2018-08-12T06:03:04.299Z,79.70
2018-08-12T06:05:32.746Z,78.80
2018-08-12T06:08:01.225Z,77.90
2018-08-12T06:10:29.672Z,77.30
2018-08-12T06:12:58.189Z,76.30
2018-08-12T06:15:26.606Z,75.60
2018-08-12T06:17:55.012Z,75.50
2018-08-12T06:20:23.450Z,74.90
2018-08-12T06:22:51.851Z,74.60
2018-08-12T06:25:20.328Z,74.30
2018-08-12T06:27:48.838Z,74.50
2018-08-12T06:30:17.248Z,74.50
2018-08-12T06:32:45.762Z,73.80
2018-08-12T06:35:14.506Z,73.40
2018-08-12T06:37:42.914Z,73.10
2018-08-12T06:40:12.591Z,72.40
2018-08-12T06:42:42.502Z,72.60
2018-08-12T06:45:13.340Z,71.70
2018-08-12T06:47:42.568Z,71.50
2018-08-12T06:50:11.224Z,71.90
2018-08-12T06:52:40.172Z,72.00
2018-08-12T06:55:10.438Z,71.80
2018-08-12T06:57:39.080Z,70.70
2018-08-12T07:00:09.628Z,70.40
2018-08-12T07:02:38.060Z,70.30
2018-08-12T07:05:08.225Z,70.10
2018-08-12T07:07:36.864Z,69.90
2018-08-12T07:10:07.531Z,69.30
2018-08-12T07:12:36.047Z,69.40
2018-08-12T07:15:06.335Z,69.30
2018-08-12T07:17:34.770Z,69.20
2018-08-12T07:20:03.307Z,68.80
2018-08-12T07:22:31.822Z,68.60
2018-08-12T07:25:00.291Z,68.00
2018-08-12T07:27:28.897Z,67.70
2018-08-12T07:29:57.465Z,67.10
2018-08-12T07:32:26.563Z,66.90
2018-08-12T07:34:55.028Z,67.20
2018-08-12T07:37:23.548Z,67.50
2018-08-12T07:39:51.991Z,66.90
2018-08-12T07:42:21.431Z,66.70
2018-08-12T07:44:49.926Z,66.50
2018-08-12T07:47:18.470Z,65.80
2018-08-12T07:49:47.683Z,65.00
2018-08-12T07:52:16.196Z,65.00
2018-08-12T07:54:44.674Z,65.00
2018-08-12T07:57:13.135Z,64.80
2018-08-12T07:59:41.579Z,64.20
2018-08-12T08:02:09.996Z,63.80
2018-08-12T08:04:38.460Z,63.70
2018-08-12T08:07:07.066Z,62.30
2018-08-12T08:09:35.497Z,61.00
2018-08-12T08:12:04.168Z,61.60
2018-08-12T08:14:32.684Z,61.60
2018-08-12T08:17:01.110Z,61.70
2018-08-12T08:19:29.728Z,60.80
2018-08-12T08:21:58.179Z,60.80
2018-08-12T08:24:26.739Z,59.80
2018-08-12T08:26:55.187Z,59.40
2018-08-12T08:29:23.671Z,59.60
2018-08-12T08:31:52.440Z,59.10
2018-08-12T08:34:20.736Z,58.50
2018-08-12T08:36:49.181Z,58.60
2018-08-12T08:39:17.732Z,57.60
2018-08-12T08:41:46.172Z,57.90
2018-08-12T08:44:14.706Z,58.00
2018-08-12T08:46:43.155Z,57.30
2018-08-12T08:49:11.640Z,57.40
2018-08-12T08:51:40.124Z,57.50
2018-08-12T08:54:08.537Z,56.60
2018-08-12T08:56:36.986Z,55.50
2018-08-12T08:59:05.796Z,54.90
2018-08-12T09:01:34.348Z,54.20
2018-08-12T09:04:02.930Z,53.30
2018-08-12T09:06:31.343Z,53.70
2018-08-12T09:09:00.194Z,53.90
2018-08-12T09:11:28.295Z,53.20
2018-08-12T09:13:56.754Z,52.40
2018-08-12T09:16:25.212Z,53.00
2018-08-12T09:18:53.818Z,52.20
2018-08-12T09:21:22.336Z,49.90
2018-08-12T09:23:50.911Z,50.40
2018-08-12T09:26:19.352Z,50.20
2018-08-12T09:28:47.946Z,49.90
2018-08-12T09:31:16.425Z,49.50
2018-08-12T09:33:45.086Z,49.10
2018-08-12T09:36:15.170Z,48.60
2018-08-12T09:38:45.290Z,46.60
2018-08-12T09:41:13.688Z,46.30
2018-08-12T09:43:42.156Z,46.10
2018-08-12T09:46:10.691Z,45.60
2018-08-12T09:48:39.262Z,45.30
2018-08-12T09:51:08.341Z,45.60
2018-08-12T09:53:36.796Z,45.10
2018-08-12T09:56:05.365Z,44.70
2018-08-12T09:58:33.955Z,44.90
2018-08-12T10:01:02.674Z,44.10
2018-08-12T10:03:31.088Z,43.30
2018-08-12T10:05:59.609Z,44.00
2018-08-12T10:08:28.132Z,43.30
2018-08-12T10:10:56.644Z,42.10
2018-08-12T10:13:25.304Z,41.80
2018-08-12T10:15:54.149Z,41.90
2018-08-12T10:18:22.669Z,41.40
2018-08-12T10:20:51.263Z,41.20
2018-08-12T10:23:22.537Z,42.20
2018-08-12T10:25:50.979Z,41.90
2018-08-12T10:28:19.477Z,41.70
2018-08-12T10:30:48.063Z,41.80
2018-08-12T10:33:16.523Z,41.20
2018-08-12T10:35:44.968Z,41.50
2018-08-12T10:38:13.464Z,41.20
2018-08-12T10:40:41.997Z,41.70
2018-08-12T10:43:10.381Z,42.20
2018-08-12T10:45:38.974Z,42.30
2018-08-12T10:48:07.969Z,41.50
2018-08-12T10:50:36.478Z,41.60
2018-08-12T10:53:05.082Z,40.70
2018-08-12T10:55:33.746Z,40.70
2018-08-12T10:58:02.209Z,40.30
2018-08-12T11:00:33.192Z,39.90
2018-08-12T11:03:01.719Z,40.40
2018-08-12T11:05:30.264Z,39.70
2018-08-12T11:07:59.663Z,39.60
2018-08-12T11:10:28.818Z,39.30
2018-08-12T11:12:57.342Z,39.40
2018-08-12T11:15:25.865Z,39.10
2018-08-12T11:17:54.578Z,38.90
2018-08-12T11:20:25.337Z,39.50
2018-08-12T11:22:54.379Z,38.60
2018-08-12T11:25:22.966Z,38.30
2018-08-12T11:27:51.521Z,39.10
2018-08-12T11:30:20.052Z,38.20
2018-08-12T11:32:48.589Z,37.70
2018-08-12T11:35:20.880Z,37.80
2018-08-12T11:37:49.311Z,36.80
2018-08-12T11:40:17.901Z,37.50
2018-08-12T11:42:46.362Z,36.80
2018-08-12T11:45:17.070Z,36.20
2018-08-12T11:47:46.462Z,36.30
2018-08-12T11:50:15.513Z,36.00
2018-08-12T11:52:44.664Z,35.80
2018-08-12T11:55:17.905Z,35.20
2018-08-12T11:57:46.476Z,35.50
2018-08-12T12:00:16.834Z,35.80
2018-08-12T12:02:46.884Z,33.80
2018-08-12T12:05:15.360Z,32.60
2018-08-12T12:07:44.223Z,30.20
2018-08-12T12:10:15.200Z,27.90
2018-08-12T12:12:44.895Z,27.40
2018-08-12T12:15:14.088Z,26.30
2018-08-12T12:17:42.848Z,25.60
2018-08-12T12:20:12.170Z,24.50
2018-08-12T12:22:41.579Z,24.10
2018-08-12T12:25:12.930Z,24.30
2018-08-12T12:27:41.492Z,24.00
2018-08-12T12:30:12.009Z,24.00
2018-08-12T12:32:40.639Z,23.70
2018-08-12T12:35:09.275Z,23.90
2018-08-12T12:37:37.822Z,24.10
2018-08-12T12:40:07.534Z,24.10
2018-08-12T12:42:36.071Z,23.90
2018-08-12T12:45:06.165Z,23.90
2018-08-12T12:47:34.660Z,24.10
2018-08-12T12:50:03.226Z,23.50
2018-08-12T12:52:31.754Z,23.00
2018-08-12T12:55:00.144Z,23.60
2018-08-12T12:57:28.611Z,24.00
2018-08-12T12:59:57.183Z,24.90
2018-08-12T13:02:25.767Z,23.90
2018-08-12T13:04:54.257Z,24.10
2018-08-12T13:07:23.644Z,23.90
2018-08-12T13:09:52.117Z,25.90
2018-08-12T13:12:20.670Z,26.70
2018-08-12T13:14:49.011Z,27.40
2018-08-12T13:17:17.584Z,28.40
2018-08-12T13:19:46.016Z,29.00
2018-08-12T13:22:14.462Z,29.40
2018-08-12T13:24:42.929Z,29.90
2018-08-12T13:27:11.468Z,29.50
2018-08-12T13:29:39.856Z,27.70
2018-08-12T13:32:08.338Z,26.40
2018-08-12T13:34:37.128Z,24.10
2018-08-12T13:37:05.553Z,23.30
2018-08-12T13:39:33.987Z,22.60
2018-08-12T13:42:02.512Z,21.90
2018-08-12T13:44:30.949Z,22.60
2018-08-12T13:46:59.392Z,23.20
2018-08-12T13:49:27.864Z,22.80
2018-08-12T13:51:56.346Z,22.70
2018-08-12T13:54:24.786Z,22.80
2018-08-12T13:56:53.226Z,23.10
2018-08-12T13:59:21.671Z,24.20
2018-08-12T14:01:50.111Z,23.40
2018-08-12T14:04:18.593Z,23.10
2018-08-12T14:06:47.149Z,23.00
2018-08-12T14:09:15.593Z,23.40
2018-08-12T14:11:44.033Z,23.90
2018-08-12T14:14:12.481Z,24.70
2018-08-12T14:16:41.633Z,26.10
2018-08-12T14:19:10.160Z,26.90
2018-08-12T14:21:38.919Z,26.70
2018-08-12T14:24:08.089Z,28.10
2018-08-12T14:26:36.493Z,27.80
2018-08-12T14:29:05.019Z,29.00
2018-08-12T14:31:33.548Z,28.20
2018-08-12T14:34:02.653Z,28.60
2018-08-12T14:36:31.134Z,29.30
2018-08-12T14:38:59.581Z,29.80
2018-08-12T14:41:28.107Z,29.60
2018-08-12T14:43:56.541Z,29.80
2018-08-12T14:46:25.030Z,29.80
2018-08-12T14:48:53.502Z,30.10
2018-08-12T14:51:22.035Z,30.00
2018-08-12T14:53:50.488Z,29.90
2018-08-12T14:56:18.913Z,30.30
2018-08-12T14:58:47.384Z,30.20
2018-08-12T15:01:15.850Z,29.50
2018-08-12T15:03:50.839Z,29.30
2018-08-12T15:06:19.339Z,28.90
2018-08-12T15:08:47.751Z,29.00
2018-08-12T15:11:16.282Z,29.10
2018-08-12T15:13:44.746Z,29.70
2018-08-12T15:16:13.229Z,29.00
2018-08-12T15:18:41.700Z,29.30
2018-08-12T15:21:10.158Z,29.70
2018-08-12T15:23:38.686Z,29.50
2018-08-12T15:26:07.136Z,30.30
2018-08-12T15:28:35.548Z,31.00
2018-08-12T15:31:03.989Z,30.40
2018-08-12T15:33:32.439Z,31.30
2018-08-12T15:36:00.972Z,31.30
2018-08-12T15:38:29.376Z,30.60
2018-08-12T15:40:57.859Z,31.30
2018-08-12T15:43:26.312Z,30.60
2018-08-12T15:45:54.770Z,30.60
2018-08-12T15:48:23.275Z,30.40
2018-08-12T15:50:51.700Z,30.60
2018-08-12T15:53:20.165Z,31.10
2018-08-12T15:55:48.608Z,31.10
2018-08-12T15:58:17.069Z,31.50
2018-08-12T16:00:45.499Z,31.50
2018-08-12T16:03:13.910Z,31.80
2018-08-12T16:05:42.386Z,32.00
2018-08-12T16:08:10.807Z,31.30
2018-08-12T16:10:39.225Z,30.90
2018-08-12T16:13:07.659Z,30.70
2018-08-12T16:15:36.200Z,30.20
2018-08-12T16:18:04.793Z,30.40
2018-08-12T16:20:33.124Z,30.90
2018-08-12T16:23:01.654Z,30.90
2018-08-12T16:25:30.212Z,31.20
2018-08-12T16:27:58.701Z,31.40
2018-08-12T16:30:27.191Z,31.10
2018-08-12T16:32:55.670Z,30.90
2018-08-12T16:35:24.201Z,29.90
2018-08-12T16:37:52.547Z,30.60
2018-08-12T16:40:21.885Z,30.50
2018-08-12T16:42:50.761Z,30.00
2018-08-12T16:45:19.879Z,29.80
2018-08-12T16:47:48.737Z,30.20
2018-08-12T16:50:17.621Z,30.90
2018-08-12T16:52:46.394Z,30.90
2018-08-12T16:55:16.184Z,30.70
2018-08-12T16:57:45.374Z,30.40
2018-08-12T17:00:18.567Z,30.00
2018-08-12T17:02:47.167Z,29.10
2018-08-12T17:05:17.927Z,27.70
2018-08-12T17:07:47.039Z,26.80
2018-08-12T17:10:16.414Z,27.50
2018-08-12T17:12:45.081Z,28.30
2018-08-12T17:15:15.818Z,29.20
2018-08-12T17:17:44.287Z,30.40
2018-08-12T17:20:13.991Z,30.90
2018-08-12T17:22:43.458Z,31.90
2018-08-12T17:25:11.940Z,31.60
2018-08-12T17:27:40.535Z,31.80
2018-08-12T17:30:10.745Z,31.60
2018-08-12T17:32:39.308Z,31.30
2018-08-12T17:35:09.303Z,31.90
2018-08-12T17:37:37.985Z,32.80
2018-08-12T17:40:08.192Z,33.40
2018-08-12T17:42:40.179Z,34.40
2018-08-12T17:45:10.177Z,34.50
2018-08-12T17:47:38.993Z,35.70
2018-08-12T17:50:08.689Z,36.10
2018-08-12T17:52:37.128Z,36.90
2018-08-12T17:55:06.065Z,36.30
2018-08-12T17:57:34.609Z,36.70
2018-08-12T18:00:03.078Z,38.00
2018-08-12T18:02:31.537Z,37.70
2018-08-12T18:05:00.050Z,37.90
2018-08-12T18:07:28.462Z,38.10
2018-08-12T18:09:56.928Z,37.80
2018-08-12T18:12:25.392Z,38.20
2018-08-12T18:14:53.875Z,38.80
2018-08-12T18:17:22.299Z,38.90
2018-08-12T18:19:50.723Z,38.40
2018-08-12T18:22:19.169Z,39.00
2018-08-12T18:24:47.660Z,40.20
2018-08-12T18:27:17.392Z,41.00
2018-08-12T18:29:45.967Z,41.70
2018-08-12T18:32:14.364Z,41.00
2018-08-12T18:34:42.874Z,42.90
2018-08-12T18:37:11.294Z,43.70
2018-08-12T18:39:39.723Z,44.20
2018-08-12T18:42:08.187Z,44.70
2018-08-12T18:44:36.614Z,45.80
2018-08-12T18:47:06.158Z,46.10
2018-08-12T18:49:34.775Z,46.20
2018-08-12T18:52:03.294Z,46.40
2018-08-12T18:54:44.575Z,46.20
2018-08-12T18:57:13.144Z,46.30
2018-08-12T18:59:45.848Z,46.10
2018-08-12T19:02:15.570Z,46.50
2018-08-12T19:04:44.065Z,46.60
2018-08-12T19:07:12.703Z,46.60
2018-08-12T19:09:48.903Z,46.60
2018-08-12T19:12:19.401Z,46.90
2018-08-12T19:14:56.464Z,47.20
2018-08-12T19:17:25.446Z,47.00
2018-08-12T19:19:54.547Z,47.30
2018-08-12T19:22:24.079Z,47.40
2018-08-12T19:24:55.375Z,47.60
2018-08-12T19:27:27.804Z,47.60
2018-08-12T19:29:57.970Z,47.70
2018-08-12T19:32:26.445Z,47.60
2018-08-12T19:34:54.920Z,47.60
2018-08-12T19:37:23.364Z,48.10
2018-08-12T19:39:51.864Z,48.20
2018-08-12T19:42:20.334Z,48.70
2018-08-12T19:44:48.813Z,48.80
2018-08-12T19:47:17.484Z,48.80
2018-08-12T19:49:46.009Z,49.00
2018-08-12T19:52:14.468Z,49.30
2018-08-12T19:54:42.942Z,49.50
2018-08-12T19:57:12.693Z,49.40
2018-08-12T19:59:41.168Z,50.10
2018-08-12T20:02:10.298Z,50.80
2018-08-12T20:04:39.012Z,50.70
2018-08-12T20:07:14.450Z,51.10
2018-08-12T20:09:42.883Z,51.30
2018-08-12T20:12:11.410Z,51.90
2018-08-12T20:14:39.790Z,51.50
2018-08-12T20:17:08.458Z,51.90
2018-08-12T20:19:37.101Z,52.10
2018-08-12T20:22:14.725Z,51.90
2018-08-12T20:27:36.083Z,53.60
2018-08-12T20:30:05.953Z,53.40
2018-08-12T20:32:44.684Z,52.90
2018-08-12T20:35:15.765Z,53.80
2018-08-12T20:37:44.587Z,53.50
2018-08-12T20:40:13.390Z,53.70
2018-08-12T20:42:42.910Z,53.80
2018-08-12T20:45:11.733Z,53.30
2018-08-12T20:47:40.285Z,54.60
2018-08-12T20:50:09.089Z,55.00
2018-08-12T20:52:37.641Z,54.10
2018-08-12T20:55:07.243Z,54.90
2018-08-12T20:57:35.715Z,54.10
2018-08-12T21:00:05.433Z,54.80
2018-08-12T21:02:33.993Z,55.30
2018-08-12T21:05:02.512Z,54.90
2018-08-12T21:07:31.793Z,55.80
2018-08-12T21:10:00.292Z,55.40
2018-08-12T21:12:29.771Z,55.10
2018-08-12T21:14:58.256Z,55.60
2018-08-12T21:17:26.804Z,56.20
2018-08-12T21:19:55.404Z,56.60
2018-08-12T21:22:23.931Z,57.10
2018-08-12T21:24:52.454Z,56.60
2018-08-12T21:27:21.049Z,57.10
2018-08-12T21:34:49.193Z,56.80
2018-08-12T21:37:17.690Z,58.10
2018-08-12T21:39:46.187Z,58.20
2018-08-12T21:42:14.653Z,58.40
2018-08-12T21:44:43.084Z,58.70
2018-08-12T21:47:11.588Z,59.30
2018-08-12T21:49:40.306Z,59.30
2018-08-12T21:52:08.953Z,59.80
2018-08-12T21:54:37.471Z,60.40
2018-08-12T21:57:05.997Z,60.50
2018-08-12T21:59:34.448Z,61.00
2018-08-12T22:02:03.214Z,60.80
2018-08-12T22:04:31.832Z,60.80
2018-08-12T22:07:00.517Z,61.60
2018-08-12T22:09:28.929Z,61.30
2018-08-12T22:11:57.384Z,61.40
2018-08-12T22:14:26.520Z,60.90
2018-08-12T22:16:55.045Z,61.40
2018-08-12T22:19:23.891Z,61.40
2018-08-12T22:21:52.282Z,61.30
2018-08-12T22:24:20.665Z,61.30
2018-08-12T22:26:49.177Z,62.00
2018-08-12T22:29:17.664Z,62.00
2018-08-12T22:31:46.274Z,62.50
2018-08-12T22:34:14.829Z,62.70
2018-08-12T22:36:44.401Z,63.00
2018-08-12T22:39:13.754Z,62.80
2018-08-12T22:41:42.204Z,63.00
2018-08-12T22:44:10.681Z,63.40
2018-08-12T22:46:39.213Z,63.30
2018-08-12T22:49:08.919Z,63.60
2018-08-12T22:51:40.971Z,63.40
2018-08-12T22:54:09.435Z,63.40
2018-08-12T22:56:37.921Z,63.20
2018-08-12T22:59:06.509Z,63.40
2018-08-12T23:01:35.618Z,63.80
2018-08-12T23:04:04.311Z,63.60
2018-08-12T23:06:32.901Z,64.30
2018-08-12T23:09:02.294Z,64.30
2018-08-12T23:11:31.383Z,64.20
2018-08-12T23:13:59.908Z,64.70
2018-08-12T23:16:39.573Z,64.70
2018-08-12T23:19:08.002Z,64.80
2018-08-12T23:21:36.476Z,64.40
2018-08-12T23:24:04.904Z,64.20
2018-08-12T23:26:33.295Z,64.70
2018-08-12T23:29:01.788Z,65.10
2018-08-12T23:31:30.256Z,65.70
2018-08-12T23:33:58.720Z,65.10
2018-08-12T23:36:27.207Z,65.60
2018-08-12T23:38:55.617Z,65.80
2018-08-12T23:41:24.057Z,65.90
2018-08-12T23:43:52.532Z,66.10
2018-08-12T23:46:20.921Z,66.50
2018-08-12T23:48:49.376Z,66.20
2018-08-12T23:51:17.828Z,66.30
2018-08-12T23:53:46.334Z,66.60
2018-08-12T23:56:14.783Z,66.00
2018-08-12T23:58:43.169Z,66.40
